sensor_id;sensor_type;location;lat;lon;timestamp;P1;durP1;ratioP1;P2;durP2;ratioP2
2602;SDS011;1311;47.966;7.958;2023-03-21T00:00:02;1.40;;;1.30;;
2602;SDS011;1311;47.966;7.958;2023-03-21T00:02:31;2.47;;;1.83;;
2602;SDS011;1311;47.966;7.958;2023-03-21T00:04:58;2.03;;;1.50;;
2602;SDS011;1311;47.966;7.958;2023-03-21T00:07:24;1.90;;;1.60;;
2602;SDS011;1311;47.966;7.958;2023-03-21T00:09:52;1.83;;;1.53;;
2602;SDS011;1311;47.966;7.958;2023-03-21T00:12:20;2.10;;;1.43;;
2602;SDS011;1311;47.966;7.958;2023-03-21T00:14:47;2.07;;;1.73;;
2602;SDS011;1311;47.966;7.958;2023-03-21T00:17:14;1.83;;;1.30;;
2602;SDS011;1311;47.966;7.958;2023-03-21T00:19:41;2.03;;;1.50;;
2602;SDS011;1311;47.966;7.958;2023-03-21T00:22:09;1.20;;;1.13;;
2602;SDS011;1311;47.966;7.958;2023-03-21T00:24:35;1.50;;;1.40;;
2602;SDS011;1311;47.966;7.958;2023-03-21T00:27:03;1.20;;;1.10;;
2602;SDS011;1311;47.966;7.958;2023-03-21T00:29:32;1.87;;;1.47;;
2602;SDS011;1311;47.966;7.958;2023-03-21T00:31:59;2.43;;;1.70;;
2602;SDS011;1311;47.966;7.958;2023-03-21T00:34:26;1.30;;;1.20;;
2602;SDS011;1311;47.966;7.958;2023-03-21T00:36:53;4.03;;;1.87;;
2602;SDS011;1311;47.966;7.958;2023-03-21T00:39:20;1.37;;;1.27;;
2602;SDS011;1311;47.966;7.958;2023-03-21T00:41:46;1.50;;;1.40;;
2602;SDS011;1311;47.966;7.958;2023-03-21T00:44:14;1.63;;;1.53;;
2602;SDS011;1311;47.966;7.958;2023-03-21T00:46:43;1.40;;;1.30;;
2602;SDS011;1311;47.966;7.958;2023-03-21T00:49:09;1.90;;;1.80;;
2602;SDS011;1311;47.966;7.958;2023-03-21T00:51:36;1.47;;;1.37;;
2602;SDS011;1311;47.966;7.958;2023-03-21T00:54:03;1.33;;;1.23;;
2602;SDS011;1311;47.966;7.958;2023-03-21T00:56:30;5.73;;;1.50;;
2602;SDS011;1311;47.966;7.958;2023-03-21T00:58:57;1.70;;;1.60;;
2602;SDS011;1311;47.966;7.958;2023-03-21T01:01:23;1.67;;;1.57;;
2602;SDS011;1311;47.966;7.958;2023-03-21T01:03:57;2.10;;;1.60;;
2602;SDS011;1311;47.966;7.958;2023-03-21T01:06:29;1.77;;;1.40;;
2602;SDS011;1311;47.966;7.958;2023-03-21T01:08:56;1.50;;;1.13;;
2602;SDS011;1311;47.966;7.958;2023-03-21T01:11:25;2.30;;;1.63;;
2602;SDS011;1311;47.966;7.958;2023-03-21T01:13:53;1.40;;;1.30;;
2602;SDS011;1311;47.966;7.958;2023-03-21T01:16:20;1.80;;;1.70;;
2602;SDS011;1311;47.966;7.958;2023-03-21T01:18:47;1.70;;;1.20;;
2602;SDS011;1311;47.966;7.958;2023-03-21T01:21:15;2.90;;;1.87;;
2602;SDS011;1311;47.966;7.958;2023-03-21T01:23:43;1.80;;;1.70;;
2602;SDS011;1311;47.966;7.958;2023-03-21T01:26:10;2.17;;;1.50;;
2602;SDS011;1311;47.966;7.958;2023-03-21T01:28:39;2.80;;;2.20;;
2602;SDS011;1311;47.966;7.958;2023-03-21T01:31:08;2.93;;;1.90;;
2602;SDS011;1311;47.966;7.958;2023-03-21T01:33:38;1.60;;;1.50;;
2602;SDS011;1311;47.966;7.958;2023-03-21T01:36:06;2.30;;;1.23;;
2602;SDS011;1311;47.966;7.958;2023-03-21T01:38:34;1.73;;;1.20;;
2602;SDS011;1311;47.966;7.958;2023-03-21T01:41:01;1.50;;;1.40;;
2602;SDS011;1311;47.966;7.958;2023-03-21T01:43:28;2.10;;;1.50;;
2602;SDS011;1311;47.966;7.958;2023-03-21T01:48:58;1.53;;;1.43;;
2602;SDS011;1311;47.966;7.958;2023-03-21T01:51:27;1.53;;;1.40;;
2602;SDS011;1311;47.966;7.958;2023-03-21T01:53:56;1.83;;;1.70;;
2602;SDS011;1311;47.966;7.958;2023-03-21T01:56:25;1.90;;;1.50;;
2602;SDS011;1311;47.966;7.958;2023-03-21T01:58:55;1.70;;;1.60;;
2602;SDS011;1311;47.966;7.958;2023-03-21T02:01:28;1.23;;;1.13;;
2602;SDS011;1311;47.966;7.958;2023-03-21T02:03:58;1.80;;;1.70;;
2602;SDS011;1311;47.966;7.958;2023-03-21T02:06:32;2.13;;;1.80;;
2602;SDS011;1311;47.966;7.958;2023-03-21T02:09:07;2.47;;;1.77;;
2602;SDS011;1311;47.966;7.958;2023-03-21T02:11:36;4.37;;;1.50;;
2602;SDS011;1311;47.966;7.958;2023-03-21T02:14:04;2.33;;;1.60;;
2602;SDS011;1311;47.966;7.958;2023-03-21T02:16:39;1.43;;;1.33;;
2602;SDS011;1311;47.966;7.958;2023-03-21T02:19:29;3.23;;;1.40;;
2602;SDS011;1311;47.966;7.958;2023-03-21T02:25:50;1.60;;;1.30;;
2602;SDS011;1311;47.966;7.958;2023-03-21T02:28:43;1.73;;;1.30;;
2602;SDS011;1311;47.966;7.958;2023-03-21T02:31:15;2.43;;;1.43;;
2602;SDS011;1311;47.966;7.958;2023-03-21T02:33:59;1.73;;;1.27;;
2602;SDS011;1311;47.966;7.958;2023-03-21T02:36:57;2.53;;;2.00;;
2602;SDS011;1311;47.966;7.958;2023-03-21T02:39:32;1.97;;;1.87;;
2602;SDS011;1311;47.966;7.958;2023-03-21T02:42:12;1.80;;;1.60;;
2602;SDS011;1311;47.966;7.958;2023-03-21T02:44:46;1.50;;;1.40;;
2602;SDS011;1311;47.966;7.958;2023-03-21T02:47:21;2.20;;;2.00;;
2602;SDS011;1311;47.966;7.958;2023-03-21T02:49:52;1.60;;;1.50;;
2602;SDS011;1311;47.966;7.958;2023-03-21T02:52:25;2.80;;;1.80;;
2602;SDS011;1311;47.966;7.958;2023-03-21T02:54:55;3.67;;;1.40;;
2602;SDS011;1311;47.966;7.958;2023-03-21T02:57:25;1.40;;;1.30;;
2602;SDS011;1311;47.966;7.958;2023-03-21T02:59:52;1.63;;;1.30;;
2602;SDS011;1311;47.966;7.958;2023-03-21T03:02:21;1.70;;;1.20;;
2602;SDS011;1311;47.966;7.958;2023-03-21T03:04:51;1.50;;;1.20;;
2602;SDS011;1311;47.966;7.958;2023-03-21T03:07:20;1.30;;;1.20;;
2602;SDS011;1311;47.966;7.958;2023-03-21T03:13:00;0.83;;;0.83;;
2602;SDS011;1311;47.966;7.958;2023-03-21T03:15:37;3.03;;;1.17;;
2602;SDS011;1311;47.966;7.958;2023-03-21T03:18:12;1.57;;;1.30;;
2602;SDS011;1311;47.966;7.958;2023-03-21T03:20:48;3.40;;;1.33;;
2602;SDS011;1311;47.966;7.958;2023-03-21T03:23:27;1.60;;;1.50;;
2602;SDS011;1311;47.966;7.958;2023-03-21T03:25:59;1.40;;;1.30;;
2602;SDS011;1311;47.966;7.958;2023-03-21T03:28:30;1.67;;;1.57;;
2602;SDS011;1311;47.966;7.958;2023-03-21T03:31:01;2.20;;;1.73;;
2602;SDS011;1311;47.966;7.958;2023-03-21T03:33:29;2.83;;;1.87;;
2602;SDS011;1311;47.966;7.958;2023-03-21T03:35:59;2.00;;;1.40;;
2602;SDS011;1311;47.966;7.958;2023-03-21T03:38:27;1.93;;;1.67;;
2602;SDS011;1311;47.966;7.958;2023-03-21T03:40:57;1.60;;;1.50;;
2602;SDS011;1311;47.966;7.958;2023-03-21T03:43:28;2.00;;;1.30;;
2602;SDS011;1311;47.966;7.958;2023-03-21T03:46:00;1.97;;;1.83;;
2602;SDS011;1311;47.966;7.958;2023-03-21T03:48:34;1.57;;;1.47;;
2602;SDS011;1311;47.966;7.958;2023-03-21T03:51:12;1.70;;;1.60;;
2602;SDS011;1311;47.966;7.958;2023-03-21T03:53:43;1.83;;;1.60;;
2602;SDS011;1311;47.966;7.958;2023-03-21T03:56:16;1.60;;;1.20;;
2602;SDS011;1311;47.966;7.958;2023-03-21T03:58:43;1.60;;;1.50;;
2602;SDS011;1311;47.966;7.958;2023-03-21T04:01:10;2.10;;;1.10;;
2602;SDS011;1311;47.966;7.958;2023-03-21T04:03:38;1.67;;;1.40;;
2602;SDS011;1311;47.966;7.958;2023-03-21T04:06:07;2.23;;;2.03;;
2602;SDS011;1311;47.966;7.958;2023-03-21T04:08:35;1.80;;;1.70;;
2602;SDS011;1311;47.966;7.958;2023-03-21T04:11:04;1.77;;;1.67;;
2602;SDS011;1311;47.966;7.958;2023-03-21T04:13:31;1.53;;;1.43;;
2602;SDS011;1311;47.966;7.958;2023-03-21T04:15:58;1.40;;;1.30;;
2602;SDS011;1311;47.966;7.958;2023-03-21T04:18:25;1.83;;;1.40;;
2602;SDS011;1311;47.966;7.958;2023-03-21T04:20:52;1.73;;;1.33;;
2602;SDS011;1311;47.966;7.958;2023-03-21T04:23:19;3.17;;;1.83;;
2602;SDS011;1311;47.966;7.958;2023-03-21T04:25:47;1.80;;;1.30;;
2602;SDS011;1311;47.966;7.958;2023-03-21T04:28:16;1.30;;;1.20;;
2602;SDS011;1311;47.966;7.958;2023-03-21T04:30:43;1.73;;;1.60;;
2602;SDS011;1311;47.966;7.958;2023-03-21T04:33:10;1.57;;;1.40;;
2602;SDS011;1311;47.966;7.958;2023-03-21T04:35:36;1.80;;;1.40;;
2602;SDS011;1311;47.966;7.958;2023-03-21T04:38:03;1.50;;;1.40;;
2602;SDS011;1311;47.966;7.958;2023-03-21T04:40:30;2.37;;;1.90;;
2602;SDS011;1311;47.966;7.958;2023-03-21T04:42:57;1.57;;;1.43;;
2602;SDS011;1311;47.966;7.958;2023-03-21T04:45:26;1.60;;;1.50;;
2602;SDS011;1311;47.966;7.958;2023-03-21T04:47:53;2.20;;;1.50;;
2602;SDS011;1311;47.966;7.958;2023-03-21T04:50:21;2.00;;;1.53;;
2602;SDS011;1311;47.966;7.958;2023-03-21T04:52:48;1.37;;;1.27;;
2602;SDS011;1311;47.966;7.958;2023-03-21T04:55:14;2.00;;;1.80;;
2602;SDS011;1311;47.966;7.958;2023-03-21T04:57:41;2.90;;;1.70;;
2602;SDS011;1311;47.966;7.958;2023-03-21T05:00:08;5.50;;;1.50;;
2602;SDS011;1311;47.966;7.958;2023-03-21T05:02:39;1.70;;;1.40;;
2602;SDS011;1311;47.966;7.958;2023-03-21T05:05:06;1.57;;;1.47;;
2602;SDS011;1311;47.966;7.958;2023-03-21T05:07:35;2.90;;;1.73;;
2602;SDS011;1311;47.966;7.958;2023-03-21T05:10:03;1.60;;;1.40;;
2602;SDS011;1311;47.966;7.958;2023-03-21T05:12:50;1.60;;;1.40;;
2602;SDS011;1311;47.966;7.958;2023-03-21T05:15:17;1.90;;;1.50;;
2602;SDS011;1311;47.966;7.958;2023-03-21T05:17:45;1.70;;;1.60;;
2602;SDS011;1311;47.966;7.958;2023-03-21T05:20:13;2.10;;;1.67;;
2602;SDS011;1311;47.966;7.958;2023-03-21T05:22:41;2.07;;;1.90;;
2602;SDS011;1311;47.966;7.958;2023-03-21T05:25:10;1.43;;;1.10;;
2602;SDS011;1311;47.966;7.958;2023-03-21T05:27:38;1.50;;;1.40;;
2602;SDS011;1311;47.966;7.958;2023-03-21T05:30:10;2.87;;;1.57;;
2602;SDS011;1311;47.966;7.958;2023-03-21T05:32:41;2.20;;;1.20;;
2602;SDS011;1311;47.966;7.958;2023-03-21T05:35:09;1.77;;;1.53;;
2602;SDS011;1311;47.966;7.958;2023-03-21T05:37:37;2.03;;;1.80;;
2602;SDS011;1311;47.966;7.958;2023-03-21T05:40:04;5.00;;;1.77;;
2602;SDS011;1311;47.966;7.958;2023-03-21T05:42:32;1.43;;;1.33;;
2602;SDS011;1311;47.966;7.958;2023-03-21T05:44:58;1.93;;;1.83;;
2602;SDS011;1311;47.966;7.958;2023-03-21T05:47:25;3.30;;;1.83;;
2602;SDS011;1311;47.966;7.958;2023-03-21T05:49:52;1.60;;;1.50;;
2602;SDS011;1311;47.966;7.958;2023-03-21T05:52:20;1.70;;;1.60;;
2602;SDS011;1311;47.966;7.958;2023-03-21T05:54:47;1.87;;;1.77;;
2602;SDS011;1311;47.966;7.958;2023-03-21T05:57:14;1.60;;;1.50;;
2602;SDS011;1311;47.966;7.958;2023-03-21T05:59:43;2.30;;;1.80;;
2602;SDS011;1311;47.966;7.958;2023-03-21T06:02:09;1.50;;;1.40;;
2602;SDS011;1311;47.966;7.958;2023-03-21T06:04:36;1.37;;;1.27;;
2602;SDS011;1311;47.966;7.958;2023-03-21T06:07:03;1.63;;;1.47;;
2602;SDS011;1311;47.966;7.958;2023-03-21T06:09:31;1.90;;;1.80;;
2602;SDS011;1311;47.966;7.958;2023-03-21T06:11:58;2.57;;;1.97;;
2602;SDS011;1311;47.966;7.958;2023-03-21T06:14:25;1.77;;;1.40;;
2602;SDS011;1311;47.966;7.958;2023-03-21T06:16:52;3.20;;;2.97;;
2602;SDS011;1311;47.966;7.958;2023-03-21T06:19:19;2.93;;;2.47;;
2602;SDS011;1311;47.966;7.958;2023-03-21T06:21:46;2.20;;;2.00;;
2602;SDS011;1311;47.966;7.958;2023-03-21T06:24:13;2.97;;;2.40;;
2602;SDS011;1311;47.966;7.958;2023-03-21T06:26:43;3.00;;;2.67;;
2602;SDS011;1311;47.966;7.958;2023-03-21T06:29:10;2.13;;;2.00;;
2602;SDS011;1311;47.966;7.958;2023-03-21T06:31:37;2.30;;;1.77;;
2602;SDS011;1311;47.966;7.958;2023-03-21T06:34:04;1.80;;;1.70;;
2602;SDS011;1311;47.966;7.958;2023-03-21T06:36:31;1.70;;;1.60;;
2602;SDS011;1311;47.966;7.958;2023-03-21T06:38:58;2.30;;;2.10;;
2602;SDS011;1311;47.966;7.958;2023-03-21T06:41:25;2.67;;;2.40;;
2602;SDS011;1311;47.966;7.958;2023-03-21T06:43:53;2.27;;;2.07;;
2602;SDS011;1311;47.966;7.958;2023-03-21T06:46:20;2.10;;;1.90;;
2602;SDS011;1311;47.966;7.958;2023-03-21T06:48:46;1.67;;;1.57;;
2602;SDS011;1311;47.966;7.958;2023-03-21T06:51:13;3.07;;;1.83;;
2602;SDS011;1311;47.966;7.958;2023-03-21T06:53:41;1.60;;;1.50;;
2602;SDS011;1311;47.966;7.958;2023-03-21T06:56:08;2.20;;;2.00;;
2602;SDS011;1311;47.966;7.958;2023-03-21T06:58:36;3.87;;;2.10;;
2602;SDS011;1311;47.966;7.958;2023-03-21T07:01:05;3.20;;;2.10;;
2602;SDS011;1311;47.966;7.958;2023-03-21T07:03:32;3.00;;;2.00;;
2602;SDS011;1311;47.966;7.958;2023-03-21T07:06:02;5.87;;;2.00;;
2602;SDS011;1311;47.966;7.958;2023-03-21T07:08:29;1.83;;;1.50;;
2602;SDS011;1311;47.966;7.958;2023-03-21T07:10:56;2.37;;;2.03;;
2602;SDS011;1311;47.966;7.958;2023-03-21T07:13:23;2.27;;;2.03;;
2602;SDS011;1311;47.966;7.958;2023-03-21T07:15:50;1.63;;;1.53;;
2602;SDS011;1311;47.966;7.958;2023-03-21T07:18:19;2.10;;;2.00;;
2602;SDS011;1311;47.966;7.958;2023-03-21T07:20:46;2.00;;;1.40;;
2602;SDS011;1311;47.966;7.958;2023-03-21T07:23:15;2.90;;;1.80;;
2602;SDS011;1311;47.966;7.958;2023-03-21T07:25:42;1.70;;;1.60;;
2602;SDS011;1311;47.966;7.958;2023-03-21T07:28:09;1.60;;;1.50;;
2602;SDS011;1311;47.966;7.958;2023-03-21T07:30:35;3.00;;;1.73;;
2602;SDS011;1311;47.966;7.958;2023-03-21T07:33:02;2.00;;;1.70;;
2602;SDS011;1311;47.966;7.958;2023-03-21T07:35:31;1.60;;;1.50;;
2602;SDS011;1311;47.966;7.958;2023-03-21T07:37:58;2.17;;;1.50;;
2602;SDS011;1311;47.966;7.958;2023-03-21T07:40:25;2.67;;;1.93;;
2602;SDS011;1311;47.966;7.958;2023-03-21T07:42:52;3.00;;;1.73;;
2602;SDS011;1311;47.966;7.958;2023-03-21T07:45:18;1.83;;;1.73;;
2602;SDS011;1311;47.966;7.958;2023-03-21T07:47:47;2.77;;;1.87;;
2602;SDS011;1311;47.966;7.958;2023-03-21T07:50:14;1.80;;;1.70;;
2602;SDS011;1311;47.966;7.958;2023-03-21T07:52:43;2.63;;;1.90;;
2602;SDS011;1311;47.966;7.958;2023-03-21T07:55:10;1.73;;;1.60;;
2602;SDS011;1311;47.966;7.958;2023-03-21T07:57:38;2.80;;;1.60;;
2602;SDS011;1311;47.966;7.958;2023-03-21T08:00:05;4.00;;;1.93;;
2602;SDS011;1311;47.966;7.958;2023-03-21T08:02:33;2.57;;;2.00;;
2602;SDS011;1311;47.966;7.958;2023-03-21T08:05:00;2.20;;;1.80;;
2602;SDS011;1311;47.966;7.958;2023-03-21T08:07:28;4.00;;;1.70;;
2602;SDS011;1311;47.966;7.958;2023-03-21T08:09:56;1.77;;;1.63;;
2602;SDS011;1311;47.966;7.958;2023-03-21T08:12:24;3.00;;;1.80;;
2602;SDS011;1311;47.966;7.958;2023-03-21T08:14:50;2.07;;;1.80;;
2602;SDS011;1311;47.966;7.958;2023-03-21T08:17:17;1.60;;;1.50;;
2602;SDS011;1311;47.966;7.958;2023-03-21T08:19:44;2.60;;;1.50;;
2602;SDS011;1311;47.966;7.958;2023-03-21T08:22:11;4.50;;;1.70;;
2602;SDS011;1311;47.966;7.958;2023-03-21T08:24:37;2.70;;;1.70;;
2602;SDS011;1311;47.966;7.958;2023-03-21T08:27:06;1.83;;;1.67;;
2602;SDS011;1311;47.966;7.958;2023-03-21T08:29:32;2.03;;;1.80;;
2602;SDS011;1311;47.966;7.958;2023-03-21T08:32:04;2.33;;;1.93;;
2602;SDS011;1311;47.966;7.958;2023-03-21T08:34:31;2.20;;;2.00;;
2602;SDS011;1311;47.966;7.958;2023-03-21T08:36:58;2.47;;;1.90;;
2602;SDS011;1311;47.966;7.958;2023-03-21T08:39:25;2.00;;;1.60;;
2602;SDS011;1311;47.966;7.958;2023-03-21T08:41:53;2.17;;;1.50;;
2602;SDS011;1311;47.966;7.958;2023-03-21T08:44:21;2.27;;;2.00;;
2602;SDS011;1311;47.966;7.958;2023-03-21T08:46:49;2.00;;;1.80;;
2602;SDS011;1311;47.966;7.958;2023-03-21T08:49:15;2.83;;;1.40;;
2602;SDS011;1311;47.966;7.958;2023-03-21T08:51:42;2.50;;;1.50;;
2602;SDS011;1311;47.966;7.958;2023-03-21T08:54:15;1.90;;;1.70;;
2602;SDS011;1311;47.966;7.958;2023-03-21T08:56:43;3.10;;;1.30;;
2602;SDS011;1311;47.966;7.958;2023-03-21T08:59:10;1.93;;;1.30;;
2602;SDS011;1311;47.966;7.958;2023-03-21T09:01:38;3.23;;;1.43;;
2602;SDS011;1311;47.966;7.958;2023-03-21T09:04:06;1.90;;;1.63;;
2602;SDS011;1311;47.966;7.958;2023-03-21T09:06:34;2.20;;;1.53;;
2602;SDS011;1311;47.966;7.958;2023-03-21T09:09:01;6.23;;;2.37;;
2602;SDS011;1311;47.966;7.958;2023-03-21T09:11:29;3.17;;;1.40;;
2602;SDS011;1311;47.966;7.958;2023-03-21T09:13:56;1.83;;;1.40;;
2602;SDS011;1311;47.966;7.958;2023-03-21T09:16:23;3.73;;;1.50;;
2602;SDS011;1311;47.966;7.958;2023-03-21T09:18:51;2.40;;;1.63;;
2602;SDS011;1311;47.966;7.958;2023-03-21T09:21:20;2.00;;;1.63;;
2602;SDS011;1311;47.966;7.958;2023-03-21T09:23:48;3.87;;;1.97;;
2602;SDS011;1311;47.966;7.958;2023-03-21T09:26:17;3.80;;;1.87;;
2602;SDS011;1311;47.966;7.958;2023-03-21T09:28:44;2.60;;;2.00;;
2602;SDS011;1311;47.966;7.958;2023-03-21T09:31:13;2.50;;;1.60;;
2602;SDS011;1311;47.966;7.958;2023-03-21T09:33:46;2.80;;;1.80;;
2602;SDS011;1311;47.966;7.958;2023-03-21T09:36:15;6.20;;;1.97;;
2602;SDS011;1311;47.966;7.958;2023-03-21T09:38:45;3.60;;;1.77;;
2602;SDS011;1311;47.966;7.958;2023-03-21T09:44:10;2.43;;;1.80;;
2602;SDS011;1311;47.966;7.958;2023-03-21T09:46:49;1.93;;;1.67;;
2602;SDS011;1311;47.966;7.958;2023-03-21T09:49:21;2.60;;;1.27;;
2602;SDS011;1311;47.966;7.958;2023-03-21T09:51:57;1.60;;;1.37;;
2602;SDS011;1311;47.966;7.958;2023-03-21T09:54:28;2.47;;;1.50;;
2602;SDS011;1311;47.966;7.958;2023-03-21T09:57:00;1.90;;;1.50;;
2602;SDS011;1311;47.966;7.958;2023-03-21T09:59:31;3.60;;;1.73;;
2602;SDS011;1311;47.966;7.958;2023-03-21T10:02:06;5.37;;;1.57;;
2602;SDS011;1311;47.966;7.958;2023-03-21T10:04:47;1.30;;;1.20;;
2602;SDS011;1311;47.966;7.958;2023-03-21T10:07:16;2.93;;;1.70;;
2602;SDS011;1311;47.966;7.958;2023-03-21T10:09:44;2.40;;;1.40;;
2602;SDS011;1311;47.966;7.958;2023-03-21T10:12:13;2.80;;;1.20;;
2602;SDS011;1311;47.966;7.958;2023-03-21T10:14:45;1.70;;;1.60;;
2602;SDS011;1311;47.966;7.958;2023-03-21T10:17:17;1.43;;;1.33;;
2602;SDS011;1311;47.966;7.958;2023-03-21T10:19:53;1.97;;;1.70;;
2602;SDS011;1311;47.966;7.958;2023-03-21T10:22:25;3.17;;;1.70;;
2602;SDS011;1311;47.966;7.958;2023-03-21T10:24:51;3.20;;;1.40;;
2602;SDS011;1311;47.966;7.958;2023-03-21T10:27:19;1.53;;;1.43;;
2602;SDS011;1311;47.966;7.958;2023-03-21T10:29:46;1.70;;;1.60;;
2602;SDS011;1311;47.966;7.958;2023-03-21T10:32:17;1.60;;;1.40;;
2602;SDS011;1311;47.966;7.958;2023-03-21T10:34:47;2.23;;;1.43;;
2602;SDS011;1311;47.966;7.958;2023-03-21T10:37:19;2.77;;;1.60;;
2602;SDS011;1311;47.966;7.958;2023-03-21T10:39:49;2.23;;;1.50;;
2602;SDS011;1311;47.966;7.958;2023-03-21T10:42:18;2.43;;;1.50;;
2602;SDS011;1311;47.966;7.958;2023-03-21T10:44:48;3.27;;;1.33;;
2602;SDS011;1311;47.966;7.958;2023-03-21T10:47:18;3.33;;;1.67;;
2602;SDS011;1311;47.966;7.958;2023-03-21T10:49:46;1.77;;;1.00;;
2602;SDS011;1311;47.966;7.958;2023-03-21T10:52:16;2.10;;;1.37;;
2602;SDS011;1311;47.966;7.958;2023-03-21T10:54:45;1.40;;;1.30;;
2602;SDS011;1311;47.966;7.958;2023-03-21T10:57:17;1.50;;;1.13;;
2602;SDS011;1311;47.966;7.958;2023-03-21T10:59:48;1.53;;;1.10;;
2602;SDS011;1311;47.966;7.958;2023-03-21T11:02:18;1.63;;;1.53;;
2602;SDS011;1311;47.966;7.958;2023-03-21T11:04:49;2.90;;;1.43;;
2602;SDS011;1311;47.966;7.958;2023-03-21T11:07:17;2.53;;;1.57;;
2602;SDS011;1311;47.966;7.958;2023-03-21T11:09:45;1.63;;;1.53;;
2602;SDS011;1311;47.966;7.958;2023-03-21T11:12:15;1.93;;;1.30;;
2602;SDS011;1311;47.966;7.958;2023-03-21T11:14:43;2.20;;;1.50;;
2602;SDS011;1311;47.966;7.958;2023-03-21T11:17:21;2.30;;;1.63;;
2602;SDS011;1311;47.966;7.958;2023-03-21T11:19:50;1.57;;;1.47;;
2602;SDS011;1311;47.966;7.958;2023-03-21T11:22:19;2.07;;;1.67;;
2602;SDS011;1311;47.966;7.958;2023-03-21T11:24:48;3.00;;;2.40;;
2602;SDS011;1311;47.966;7.958;2023-03-21T11:27:19;2.60;;;1.73;;
2602;SDS011;1311;47.966;7.958;2023-03-21T11:29:47;3.20;;;2.03;;
2602;SDS011;1311;47.966;7.958;2023-03-21T11:32:19;3.57;;;1.93;;
2602;SDS011;1311;47.966;7.958;2023-03-21T11:34:48;1.83;;;1.70;;
2602;SDS011;1311;47.966;7.958;2023-03-21T11:37:19;3.33;;;1.93;;
2602;SDS011;1311;47.966;7.958;2023-03-21T11:39:55;2.60;;;2.40;;
2602;SDS011;1311;47.966;7.958;2023-03-21T11:42:32;4.10;;;2.40;;
2602;SDS011;1311;47.966;7.958;2023-03-21T11:45:11;2.77;;;2.53;;
2602;SDS011;1311;47.966;7.958;2023-03-21T11:47:40;2.63;;;2.20;;
2602;SDS011;1311;47.966;7.958;2023-03-21T11:50:14;2.43;;;2.23;;
2602;SDS011;1311;47.966;7.958;2023-03-21T11:52:46;2.50;;;2.30;;
2602;SDS011;1311;47.966;7.958;2023-03-21T11:55:25;2.43;;;2.23;;
2602;SDS011;1311;47.966;7.958;2023-03-21T11:58:07;3.03;;;2.00;;
2602;SDS011;1311;47.966;7.958;2023-03-21T12:00:47;4.90;;;2.60;;
2602;SDS011;1311;47.966;7.958;2023-03-21T12:03:27;2.93;;;2.20;;
2602;SDS011;1311;47.966;7.958;2023-03-21T12:06:04;3.00;;;2.70;;
2602;SDS011;1311;47.966;7.958;2023-03-21T12:08:41;1.60;;;1.50;;
2602;SDS011;1311;47.966;7.958;2023-03-21T12:11:16;2.57;;;2.23;;
2602;SDS011;1311;47.966;7.958;2023-03-21T12:13:56;3.27;;;2.53;;
2602;SDS011;1311;47.966;7.958;2023-03-21T12:16:34;4.00;;;2.67;;
2602;SDS011;1311;47.966;7.958;2023-03-21T12:19:15;4.03;;;2.40;;
2602;SDS011;1311;47.966;7.958;2023-03-21T12:21:58;2.77;;;2.50;;
2602;SDS011;1311;47.966;7.958;2023-03-21T12:24:31;2.77;;;2.57;;
2602;SDS011;1311;47.966;7.958;2023-03-21T12:27:07;4.57;;;2.90;;
2602;SDS011;1311;47.966;7.958;2023-03-21T12:32:40;3.07;;;2.77;;
2602;SDS011;1311;47.966;7.958;2023-03-21T12:35:23;3.50;;;2.60;;
2602;SDS011;1311;47.966;7.958;2023-03-21T12:37:56;2.90;;;2.60;;
2602;SDS011;1311;47.966;7.958;2023-03-21T12:40:38;2.77;;;2.40;;
2602;SDS011;1311;47.966;7.958;2023-03-21T12:43:26;3.20;;;2.90;;
2602;SDS011;1311;47.966;7.958;2023-03-21T12:46:04;3.83;;;2.67;;
2602;SDS011;1311;47.966;7.958;2023-03-21T12:48:37;4.00;;;2.60;;
2602;SDS011;1311;47.966;7.958;2023-03-21T12:51:10;2.60;;;2.40;;
2602;SDS011;1311;47.966;7.958;2023-03-21T12:53:42;2.37;;;2.10;;
2602;SDS011;1311;47.966;7.958;2023-03-21T12:56:23;3.50;;;2.40;;
2602;SDS011;1311;47.966;7.958;2023-03-21T12:59:21;2.50;;;2.10;;
2602;SDS011;1311;47.966;7.958;2023-03-21T13:01:53;2.50;;;2.30;;
2602;SDS011;1311;47.966;7.958;2023-03-21T13:04:39;3.20;;;2.23;;
2602;SDS011;1311;47.966;7.958;2023-03-21T13:07:11;2.70;;;2.07;;
2602;SDS011;1311;47.966;7.958;2023-03-21T13:09:41;1.93;;;1.77;;
2602;SDS011;1311;47.966;7.958;2023-03-21T13:12:14;6.27;;;4.40;;
2602;SDS011;1311;47.966;7.958;2023-03-21T13:14:55;2.63;;;1.70;;
2602;SDS011;1311;47.966;7.958;2023-03-21T13:17:33;4.47;;;4.17;;
2602;SDS011;1311;47.966;7.958;2023-03-21T13:20:06;3.30;;;3.00;;
2602;SDS011;1311;47.966;7.958;2023-03-21T13:22:43;1.47;;;1.37;;
2602;SDS011;1311;47.966;7.958;2023-03-21T13:25:15;1.40;;;1.17;;
2602;SDS011;1311;47.966;7.958;2023-03-21T13:27:46;1.40;;;1.03;;
2602;SDS011;1311;47.966;7.958;2023-03-21T13:30:17;1.37;;;1.00;;
2602;SDS011;1311;47.966;7.958;2023-03-21T13:32:48;1.03;;;0.90;;
2602;SDS011;1311;47.966;7.958;2023-03-21T13:35:18;0.93;;;0.67;;
2602;SDS011;1311;47.966;7.958;2023-03-21T13:37:51;3.03;;;0.80;;
2602;SDS011;1311;47.966;7.958;2023-03-21T13:40:22;1.17;;;0.70;;
2602;SDS011;1311;47.966;7.958;2023-03-21T13:42:53;1.50;;;0.70;;
2602;SDS011;1311;47.966;7.958;2023-03-21T13:45:24;0.70;;;0.60;;
2602;SDS011;1311;47.966;7.958;2023-03-21T13:47:57;5.37;;;0.77;;
2602;SDS011;1311;47.966;7.958;2023-03-21T13:50:35;1.33;;;0.87;;
2602;SDS011;1311;47.966;7.958;2023-03-21T13:55:58;0.90;;;0.60;;
2602;SDS011;1311;47.966;7.958;2023-03-21T13:58:50;1.00;;;0.60;;
2602;SDS011;1311;47.966;7.958;2023-03-21T14:01:25;1.60;;;0.80;;
2602;SDS011;1311;47.966;7.958;2023-03-21T14:03:59;2.07;;;0.90;;
2602;SDS011;1311;47.966;7.958;2023-03-21T14:06:31;0.70;;;0.53;;
2602;SDS011;1311;47.966;7.958;2023-03-21T14:09:01;1.03;;;0.73;;
2602;SDS011;1311;47.966;7.958;2023-03-21T14:11:29;1.03;;;0.70;;
2602;SDS011;1311;47.966;7.958;2023-03-21T14:13:57;0.87;;;0.67;;
2602;SDS011;1311;47.966;7.958;2023-03-21T14:16:25;1.00;;;0.90;;
2602;SDS011;1311;47.966;7.958;2023-03-21T14:18:54;1.10;;;0.70;;
2602;SDS011;1311;47.966;7.958;2023-03-21T14:21:24;1.50;;;0.80;;
2602;SDS011;1311;47.966;7.958;2023-03-21T14:23:55;0.73;;;0.70;;
2602;SDS011;1311;47.966;7.958;2023-03-21T14:26:23;1.10;;;0.80;;
2602;SDS011;1311;47.966;7.958;2023-03-21T14:28:51;2.30;;;0.90;;
2602;SDS011;1311;47.966;7.958;2023-03-21T14:31:18;1.00;;;0.93;;
2602;SDS011;1311;47.966;7.958;2023-03-21T14:33:47;1.90;;;1.60;;
2602;SDS011;1311;47.966;7.958;2023-03-21T14:36:18;0.90;;;0.80;;
2602;SDS011;1311;47.966;7.958;2023-03-21T14:38:54;2.73;;;2.27;;
2602;SDS011;1311;47.966;7.958;2023-03-21T14:41:23;3.87;;;2.10;;
2602;SDS011;1311;47.966;7.958;2023-03-21T14:44:01;1.10;;;0.90;;
2602;SDS011;1311;47.966;7.958;2023-03-21T14:46:36;1.53;;;0.90;;
2602;SDS011;1311;47.966;7.958;2023-03-21T14:49:09;1.47;;;0.97;;
2602;SDS011;1311;47.966;7.958;2023-03-21T14:51:43;1.73;;;1.20;;
2602;SDS011;1311;47.966;7.958;2023-03-21T14:54:14;1.20;;;1.10;;
2602;SDS011;1311;47.966;7.958;2023-03-21T14:56:44;2.47;;;1.20;;
2602;SDS011;1311;47.966;7.958;2023-03-21T14:59:13;1.33;;;1.20;;
2602;SDS011;1311;47.966;7.958;2023-03-21T15:01:42;1.00;;;0.90;;
2602;SDS011;1311;47.966;7.958;2023-03-21T15:04:11;1.83;;;1.40;;
2602;SDS011;1311;47.966;7.958;2023-03-21T15:06:50;1.60;;;1.00;;
2602;SDS011;1311;47.966;7.958;2023-03-21T15:09:21;1.13;;;1.03;;
2602;SDS011;1311;47.966;7.958;2023-03-21T15:11:53;1.70;;;1.20;;
2602;SDS011;1311;47.966;7.958;2023-03-21T15:14:28;3.03;;;2.70;;
2602;SDS011;1311;47.966;7.958;2023-03-21T15:17:01;4.07;;;3.67;;
2602;SDS011;1311;47.966;7.958;2023-03-21T15:19:35;2.40;;;2.20;;
2602;SDS011;1311;47.966;7.958;2023-03-21T15:22:05;2.50;;;1.90;;
2602;SDS011;1311;47.966;7.958;2023-03-21T15:24:42;2.47;;;1.73;;
2602;SDS011;1311;47.966;7.958;2023-03-21T15:27:14;1.33;;;1.17;;
2602;SDS011;1311;47.966;7.958;2023-03-21T15:29:43;1.40;;;1.30;;
2602;SDS011;1311;47.966;7.958;2023-03-21T15:32:14;1.70;;;1.10;;
2602;SDS011;1311;47.966;7.958;2023-03-21T15:34:44;1.20;;;1.10;;
2602;SDS011;1311;47.966;7.958;2023-03-21T15:37:15;1.40;;;1.27;;
2602;SDS011;1311;47.966;7.958;2023-03-21T15:39:47;1.30;;;1.20;;
2602;SDS011;1311;47.966;7.958;2023-03-21T15:42:23;1.30;;;1.17;;
2602;SDS011;1311;47.966;7.958;2023-03-21T15:44:54;1.50;;;1.40;;
2602;SDS011;1311;47.966;7.958;2023-03-21T15:47:40;1.73;;;1.60;;
2602;SDS011;1311;47.966;7.958;2023-03-21T15:50:09;2.20;;;1.40;;
2602;SDS011;1311;47.966;7.958;2023-03-21T15:52:42;1.70;;;1.20;;